sensor_id;sensor_type;location;lat;lon;timestamp;P1;durP1;ratioP1;P2;durP2;ratioP2
12956;SDS011;6543;48.836;10.092;2024-03-23T00:52:12;7.10;;;5.23;;
12956;SDS011;6543;48.836;10.092;2024-03-23T00:54:38;13.30;;;5.87;;
12956;SDS011;6543;48.836;10.092;2024-03-23T00:57:07;8.27;;;4.57;;
12956;SDS011;6543;48.836;10.092;2024-03-23T00:59:32;7.77;;;4.40;;
12956;SDS011;6543;48.836;10.092;2024-03-23T01:01:59;7.53;;;4.80;;
12956;SDS011;6543;48.836;10.092;2024-03-23T01:04:25;8.73;;;4.93;;
12956;SDS011;6543;48.836;10.092;2024-03-23T01:06:52;8.73;;;5.63;;
12956;SDS011;6543;48.836;10.092;2024-03-23T01:09:18;10.37;;;5.30;;
12956;SDS011;6543;48.836;10.092;2024-03-23T01:11:45;6.87;;;5.17;;
12956;SDS011;6543;48.836;10.092;2024-03-23T01:14:12;9.43;;;5.40;;
12956;SDS011;6543;48.836;10.092;2024-03-23T01:16:39;7.43;;;5.00;;
12956;SDS011;6543;48.836;10.092;2024-03-23T01:19:05;10.20;;;5.63;;
12956;SDS011;6543;48.836;10.092;2024-03-23T01:21:32;9.83;;;5.80;;
12956;SDS011;6543;48.836;10.092;2024-03-23T01:23:58;8.20;;;5.43;;
12956;SDS011;6543;48.836;10.092;2024-03-23T01:26:25;7.10;;;5.30;;
12956;SDS011;6543;48.836;10.092;2024-03-23T01:28:51;7.07;;;4.50;;
12956;SDS011;6543;48.836;10.092;2024-03-23T01:31:19;8.10;;;4.70;;
12956;SDS011;6543;48.836;10.092;2024-03-23T01:33:45;10.33;;;4.97;;
12956;SDS011;6543;48.836;10.092;2024-03-23T01:36:12;5.77;;;4.33;;
12956;SDS011;6543;48.836;10.092;2024-03-23T01:38:38;9.70;;;4.97;;
12956;SDS011;6543;48.836;10.092;2024-03-23T01:41:05;12.10;;;4.90;;
12956;SDS011;6543;48.836;10.092;2024-03-23T01:43:31;6.70;;;5.10;;
12956;SDS011;6543;48.836;10.092;2024-03-23T01:45:58;10.03;;;4.90;;
12956;SDS011;6543;48.836;10.092;2024-03-23T01:48:25;9.07;;;4.90;;
12956;SDS011;6543;48.836;10.092;2024-03-23T01:50:52;10.17;;;4.30;;
12956;SDS011;6543;48.836;10.092;2024-03-23T01:53:18;7.97;;;4.27;;
12956;SDS011;6543;48.836;10.092;2024-03-23T01:55:46;8.97;;;4.27;;
12956;SDS011;6543;48.836;10.092;2024-03-23T01:58:12;7.33;;;3.73;;
12956;SDS011;6543;48.836;10.092;2024-03-23T02:00:40;10.40;;;4.60;;
12956;SDS011;6543;48.836;10.092;2024-03-23T02:05:52;9.27;;;4.33;;
12956;SDS011;6543;48.836;10.092;2024-03-23T02:08:20;6.60;;;4.13;;
12956;SDS011;6543;48.836;10.092;2024-03-23T02:10:47;10.97;;;3.70;;
12956;SDS011;6543;48.836;10.092;2024-03-23T02:13:14;5.07;;;3.13;;
12956;SDS011;6543;48.836;10.092;2024-03-23T02:15:41;8.33;;;3.63;;
12956;SDS011;6543;48.836;10.092;2024-03-23T02:18:07;5.53;;;3.20;;
12956;SDS011;6543;48.836;10.092;2024-03-23T02:20:36;6.47;;;3.33;;
12956;SDS011;6543;48.836;10.092;2024-03-23T02:23:04;9.27;;;3.97;;
12956;SDS011;6543;48.836;10.092;2024-03-23T02:25:32;5.53;;;3.80;;
12956;SDS011;6543;48.836;10.092;2024-03-23T02:27:58;4.70;;;3.33;;
12956;SDS011;6543;48.836;10.092;2024-03-23T02:30:25;5.80;;;3.50;;
12956;SDS011;6543;48.836;10.092;2024-03-23T02:32:51;5.83;;;3.60;;
12956;SDS011;6543;48.836;10.092;2024-03-23T02:35:18;10.17;;;3.50;;
12956;SDS011;6543;48.836;10.092;2024-03-23T02:37:43;6.93;;;3.13;;
12956;SDS011;6543;48.836;10.092;2024-03-23T02:40:14;8.60;;;2.73;;
12956;SDS011;6543;48.836;10.092;2024-03-23T02:42:40;5.67;;;3.37;;
12956;SDS011;6543;48.836;10.092;2024-03-23T02:45:07;5.00;;;2.97;;
12956;SDS011;6543;48.836;10.092;2024-03-23T02:47:33;7.87;;;3.37;;
12956;SDS011;6543;48.836;10.092;2024-03-23T02:50:00;6.10;;;2.47;;
12956;SDS011;6543;48.836;10.092;2024-03-23T02:52:26;6.53;;;3.10;;
12956;SDS011;6543;48.836;10.092;2024-03-23T02:54:53;5.97;;;3.10;;
12956;SDS011;6543;48.836;10.092;2024-03-23T02:57:21;5.93;;;2.40;;
12956;SDS011;6543;48.836;10.092;2024-03-23T02:59:48;4.50;;;2.73;;
12956;SDS011;6543;48.836;10.092;2024-03-23T03:02:15;6.77;;;3.10;;
12956;SDS011;6543;48.836;10.092;2024-03-23T03:04:42;5.93;;;2.23;;
12956;SDS011;6543;48.836;10.092;2024-03-23T03:07:08;2.90;;;2.37;;
12956;SDS011;6543;48.836;10.092;2024-03-23T03:09:34;4.87;;;2.37;;
12956;SDS011;6543;48.836;10.092;2024-03-23T03:12:00;3.00;;;2.10;;
12956;SDS011;6543;48.836;10.092;2024-03-23T03:14:29;3.73;;;1.87;;
12956;SDS011;6543;48.836;10.092;2024-03-23T03:16:55;2.30;;;1.93;;
12956;SDS011;6543;48.836;10.092;2024-03-23T03:19:22;3.73;;;2.00;;
12956;SDS011;6543;48.836;10.092;2024-03-23T03:21:48;2.30;;;1.80;;
12956;SDS011;6543;48.836;10.092;2024-03-23T03:24:14;4.43;;;2.17;;
12956;SDS011;6543;48.836;10.092;2024-03-23T03:26:40;2.40;;;1.90;;
12956;SDS011;6543;48.836;10.092;2024-03-23T03:29:07;5.00;;;1.80;;
12956;SDS011;6543;48.836;10.092;2024-03-23T03:31:34;2.77;;;1.83;;
12956;SDS011;6543;48.836;10.092;2024-03-23T03:34:01;2.63;;;1.77;;
12956;SDS011;6543;48.836;10.092;2024-03-23T03:36:27;2.50;;;1.83;;
12956;SDS011;6543;48.836;10.092;2024-03-23T03:38:54;2.13;;;1.80;;
12956;SDS011;6543;48.836;10.092;2024-03-23T03:41:20;2.60;;;1.70;;
12956;SDS011;6543;48.836;10.092;2024-03-23T03:43:47;2.73;;;1.90;;
12956;SDS011;6543;48.836;10.092;2024-03-23T03:46:12;3.30;;;1.80;;
12956;SDS011;6543;48.836;10.092;2024-03-23T03:48:40;2.53;;;1.70;;
12956;SDS011;6543;48.836;10.092;2024-03-23T03:51:06;2.00;;;1.80;;
12956;SDS011;6543;48.836;10.092;2024-03-23T03:53:33;6.47;;;1.70;;
12956;SDS011;6543;48.836;10.092;2024-03-23T03:56:00;2.90;;;1.87;;
12956;SDS011;6543;48.836;10.092;2024-03-23T03:58:27;2.70;;;2.03;;
12956;SDS011;6543;48.836;10.092;2024-03-23T04:00:53;4.80;;;2.17;;
12956;SDS011;6543;48.836;10.092;2024-03-23T04:03:20;3.00;;;1.83;;
12956;SDS011;6543;48.836;10.092;2024-03-23T04:05:50;3.17;;;1.97;;
12956;SDS011;6543;48.836;10.092;2024-03-23T04:08:17;5.60;;;2.50;;
12956;SDS011;6543;48.836;10.092;2024-03-23T04:10:44;2.20;;;2.00;;
12956;SDS011;6543;48.836;10.092;2024-03-23T04:13:10;3.57;;;2.10;;
12956;SDS011;6543;48.836;10.092;2024-03-23T04:15:36;7.17;;;1.83;;
12956;SDS011;6543;48.836;10.092;2024-03-23T04:18:03;2.63;;;2.17;;
12956;SDS011;6543;48.836;10.092;2024-03-23T04:20:29;2.30;;;1.90;;
12956;SDS011;6543;48.836;10.092;2024-03-23T04:22:58;3.60;;;2.30;;
12956;SDS011;6543;48.836;10.092;2024-03-23T04:25:24;2.77;;;2.27;;
12956;SDS011;6543;48.836;10.092;2024-03-23T04:27:51;2.50;;;2.00;;
12956;SDS011;6543;48.836;10.092;2024-03-23T04:30:17;3.63;;;1.87;;
12956;SDS011;6543;48.836;10.092;2024-03-23T04:32:44;4.37;;;2.20;;
12956;SDS011;6543;48.836;10.092;2024-03-23T04:35:10;2.60;;;2.13;;
12956;SDS011;6543;48.836;10.092;2024-03-23T04:37:38;3.43;;;2.70;;
12956;SDS011;6543;48.836;10.092;2024-03-23T04:40:08;5.00;;;2.60;;
12956;SDS011;6543;48.836;10.092;2024-03-23T04:42:36;2.87;;;2.30;;
12956;SDS011;6543;48.836;10.092;2024-03-23T04:45:03;3.93;;;2.50;;
12956;SDS011;6543;48.836;10.092;2024-03-23T04:47:31;3.40;;;2.60;;
12956;SDS011;6543;48.836;10.092;2024-03-23T04:49:58;3.10;;;2.10;;
12956;SDS011;6543;48.836;10.092;2024-03-23T04:52:24;4.23;;;2.77;;
12956;SDS011;6543;48.836;10.092;2024-03-23T04:54:51;5.20;;;2.27;;
12956;SDS011;6543;48.836;10.092;2024-03-23T04:57:19;2.80;;;2.27;;
12956;SDS011;6543;48.836;10.092;2024-03-23T04:59:45;3.67;;;2.50;;
12956;SDS011;6543;48.836;10.092;2024-03-23T05:02:12;3.03;;;2.20;;
12956;SDS011;6543;48.836;10.092;2024-03-23T05:04:38;5.23;;;2.27;;
12956;SDS011;6543;48.836;10.092;2024-03-23T05:07:05;4.37;;;2.10;;
12956;SDS011;6543;48.836;10.092;2024-03-23T05:09:31;5.50;;;2.33;;
12956;SDS011;6543;48.836;10.092;2024-03-23T05:11:58;4.60;;;2.20;;
12956;SDS011;6543;48.836;10.092;2024-03-23T05:14:26;4.00;;;2.33;;
12956;SDS011;6543;48.836;10.092;2024-03-23T05:16:53;6.80;;;2.20;;
12956;SDS011;6543;48.836;10.092;2024-03-23T05:19:19;3.40;;;2.17;;
12956;SDS011;6543;48.836;10.092;2024-03-23T05:21:46;4.73;;;2.43;;
12956;SDS011;6543;48.836;10.092;2024-03-23T05:24:12;2.50;;;1.97;;
12956;SDS011;6543;48.836;10.092;2024-03-23T05:26:39;2.13;;;1.70;;
12956;SDS011;6543;48.836;10.092;2024-03-23T05:29:05;5.23;;;1.90;;
12956;SDS011;6543;48.836;10.092;2024-03-23T05:31:37;3.30;;;1.90;;
12956;SDS011;6543;48.836;10.092;2024-03-23T05:34:03;7.20;;;2.30;;
12956;SDS011;6543;48.836;10.092;2024-03-23T05:36:29;2.47;;;2.17;;
12956;SDS011;6543;48.836;10.092;2024-03-23T05:38:55;2.70;;;2.33;;
12956;SDS011;6543;48.836;10.092;2024-03-23T05:41:22;5.47;;;2.27;;
12956;SDS011;6543;48.836;10.092;2024-03-23T05:43:49;2.93;;;2.17;;
12956;SDS011;6543;48.836;10.092;2024-03-23T05:46:16;4.83;;;2.40;;
12956;SDS011;6543;48.836;10.092;2024-03-23T05:48:44;2.60;;;2.23;;
12956;SDS011;6543;48.836;10.092;2024-03-23T05:51:11;4.67;;;2.57;;
12956;SDS011;6543;48.836;10.092;2024-03-23T05:53:37;5.27;;;3.53;;
12956;SDS011;6543;48.836;10.092;2024-03-23T05:56:04;4.87;;;2.80;;
12956;SDS011;6543;48.836;10.092;2024-03-23T05:58:31;9.67;;;6.13;;
12956;SDS011;6543;48.836;10.092;2024-03-23T06:00:58;6.13;;;3.77;;
12956;SDS011;6543;48.836;10.092;2024-03-23T06:03:25;12.33;;;8.47;;
12956;SDS011;6543;48.836;10.092;2024-03-23T06:05:53;9.67;;;5.60;;
12956;SDS011;6543;48.836;10.092;2024-03-23T06:08:19;19.70;;;9.67;;
12956;SDS011;6543;48.836;10.092;2024-03-23T06:10:46;11.77;;;8.07;;
12956;SDS011;6543;48.836;10.092;2024-03-23T06:13:12;11.70;;;8.30;;
12956;SDS011;6543;48.836;10.092;2024-03-23T06:15:39;14.80;;;10.07;;
12956;SDS011;6543;48.836;10.092;2024-03-23T06:18:05;18.97;;;10.50;;
12956;SDS011;6543;48.836;10.092;2024-03-23T06:20:32;12.20;;;10.07;;
12956;SDS011;6543;48.836;10.092;2024-03-23T06:23:00;12.23;;;9.23;;
12956;SDS011;6543;48.836;10.092;2024-03-23T06:25:27;14.83;;;9.90;;
12956;SDS011;6543;48.836;10.092;2024-03-23T06:27:53;13.33;;;8.40;;
12956;SDS011;6543;48.836;10.092;2024-03-23T06:30:20;14.10;;;9.13;;
12956;SDS011;6543;48.836;10.092;2024-03-23T06:32:45;14.90;;;8.50;;
12956;SDS011;6543;48.836;10.092;2024-03-23T06:35:12;10.80;;;8.00;;
12956;SDS011;6543;48.836;10.092;2024-03-23T06:37:38;9.40;;;6.27;;
12956;SDS011;6543;48.836;10.092;2024-03-23T06:40:08;6.17;;;3.87;;
12956;SDS011;6543;48.836;10.092;2024-03-23T06:42:35;9.57;;;6.27;;
12956;SDS011;6543;48.836;10.092;2024-03-23T06:45:02;7.30;;;4.77;;
12956;SDS011;6543;48.836;10.092;2024-03-23T06:47:29;4.80;;;3.87;;
12956;SDS011;6543;48.836;10.092;2024-03-23T06:49:56;6.23;;;5.23;;
12956;SDS011;6543;48.836;10.092;2024-03-23T06:52:22;6.77;;;3.90;;
12956;SDS011;6543;48.836;10.092;2024-03-23T06:54:49;6.57;;;4.37;;
12956;SDS011;6543;48.836;10.092;2024-03-23T06:57:16;7.07;;;4.67;;
12956;SDS011;6543;48.836;10.092;2024-03-23T06:59:43;3.43;;;2.47;;
12956;SDS011;6543;48.836;10.092;2024-03-23T07:02:09;7.30;;;4.43;;
12956;SDS011;6543;48.836;10.092;2024-03-23T07:04:36;5.80;;;4.67;;
12956;SDS011;6543;48.836;10.092;2024-03-23T07:07:04;7.60;;;4.33;;
12956;SDS011;6543;48.836;10.092;2024-03-23T07:09:31;4.13;;;3.30;;
12956;SDS011;6543;48.836;10.092;2024-03-23T07:11:57;4.80;;;3.00;;
12956;SDS011;6543;48.836;10.092;2024-03-23T07:14:25;5.47;;;3.80;;
12956;SDS011;6543;48.836;10.092;2024-03-23T07:16:51;6.77;;;3.53;;
12956;SDS011;6543;48.836;10.092;2024-03-23T07:19:18;4.83;;;3.20;;
12956;SDS011;6543;48.836;10.092;2024-03-23T07:21:44;4.87;;;4.13;;
12956;SDS011;6543;48.836;10.092;2024-03-23T07:24:11;5.80;;;4.10;;
12956;SDS011;6543;48.836;10.092;2024-03-23T07:26:37;4.20;;;3.27;;
12956;SDS011;6543;48.836;10.092;2024-03-23T07:29:04;3.97;;;3.30;;
12956;SDS011;6543;48.836;10.092;2024-03-23T07:31:31;3.53;;;3.13;;
12956;SDS011;6543;48.836;10.092;2024-03-23T07:33:58;4.50;;;3.10;;
12956;SDS011;6543;48.836;10.092;2024-03-23T07:36:24;3.40;;;3.03;;
12956;SDS011;6543;48.836;10.092;2024-03-23T07:38:51;4.13;;;3.37;;
12956;SDS011;6543;48.836;10.092;2024-03-23T07:41:17;2.90;;;1.97;;
12956;SDS011;6543;48.836;10.092;2024-03-23T07:43:45;3.50;;;2.63;;
12956;SDS011;6543;48.836;10.092;2024-03-23T07:46:12;3.47;;;2.00;;
12956;SDS011;6543;48.836;10.092;2024-03-23T07:48:40;3.07;;;1.97;;
12956;SDS011;6543;48.836;10.092;2024-03-23T07:51:08;3.07;;;2.10;;
12956;SDS011;6543;48.836;10.092;2024-03-23T07:53:36;2.30;;;2.00;;
12956;SDS011;6543;48.836;10.092;2024-03-23T07:56:03;1.93;;;1.73;;
12956;SDS011;6543;48.836;10.092;2024-03-23T07:58:32;3.43;;;2.10;;
12956;SDS011;6543;48.836;10.092;2024-03-23T08:01:03;1.60;;;1.23;;
12956;SDS011;6543;48.836;10.092;2024-03-23T08:03:33;2.53;;;1.50;;
12956;SDS011;6543;48.836;10.092;2024-03-23T08:06:07;1.53;;;1.40;;
12956;SDS011;6543;48.836;10.092;2024-03-23T08:08:35;1.20;;;1.10;;
12956;SDS011;6543;48.836;10.092;2024-03-23T08:11:00;1.70;;;1.17;;
12956;SDS011;6543;48.836;10.092;2024-03-23T08:13:28;0.93;;;0.83;;
12956;SDS011;6543;48.836;10.092;2024-03-23T08:16:17;0.97;;;0.90;;
12956;SDS011;6543;48.836;10.092;2024-03-23T08:18:44;0.60;;;0.60;;
12956;SDS011;6543;48.836;10.092;2024-03-23T08:21:11;3.47;;;0.83;;
12956;SDS011;6543;48.836;10.092;2024-03-23T08:23:39;0.63;;;0.63;;
12956;SDS011;6543;48.836;10.092;2024-03-23T08:26:06;0.60;;;0.60;;
12956;SDS011;6543;48.836;10.092;2024-03-23T08:28:34;2.10;;;1.00;;
12956;SDS011;6543;48.836;10.092;2024-03-23T08:31:02;1.17;;;0.97;;
12956;SDS011;6543;48.836;10.092;2024-03-23T08:33:30;0.40;;;0.40;;
12956;SDS011;6543;48.836;10.092;2024-03-23T08:35:58;0.67;;;0.60;;
12956;SDS011;6543;48.836;10.092;2024-03-23T08:38:26;0.60;;;0.60;;
12956;SDS011;6543;48.836;10.092;2024-03-23T08:40:57;0.70;;;0.70;;
12956;SDS011;6543;48.836;10.092;2024-03-23T08:43:23;0.40;;;0.40;;
12956;SDS011;6543;48.836;10.092;2024-03-23T08:45:51;1.23;;;0.97;;
12956;SDS011;6543;48.836;10.092;2024-03-23T08:48:17;2.17;;;1.97;;
12956;SDS011;6543;48.836;10.092;2024-03-23T08:50:45;0.63;;;0.63;;
12956;SDS011;6543;48.836;10.092;2024-03-23T08:53:11;0.77;;;0.77;;
12956;SDS011;6543;48.836;10.092;2024-03-23T08:55:39;1.07;;;0.97;;
12956;SDS011;6543;48.836;10.092;2024-03-23T08:58:05;0.53;;;0.53;;
12956;SDS011;6543;48.836;10.092;2024-03-23T09:00:33;0.50;;;0.50;;
12956;SDS011;6543;48.836;10.092;2024-03-23T09:02:59;0.50;;;0.50;;
12956;SDS011;6543;48.836;10.092;2024-03-23T09:05:26;0.60;;;0.60;;
12956;SDS011;6543;48.836;10.092;2024-03-23T09:07:53;0.47;;;0.43;;
12956;SDS011;6543;48.836;10.092;2024-03-23T09:10:20;0.57;;;0.57;;
12956;SDS011;6543;48.836;10.092;2024-03-23T09:12:48;0.83;;;0.67;;
12956;SDS011;6543;48.836;10.092;2024-03-23T09:15:15;0.40;;;0.40;;
12956;SDS011;6543;48.836;10.092;2024-03-23T09:17:41;0.30;;;0.30;;
12956;SDS011;6543;48.836;10.092;2024-03-23T09:20:08;2.17;;;0.50;;
12956;SDS011;6543;48.836;10.092;2024-03-23T09:22:35;0.70;;;0.40;;
12956;SDS011;6543;48.836;10.092;2024-03-23T09:25:02;1.17;;;0.60;;
12956;SDS011;6543;48.836;10.092;2024-03-23T09:27:30;0.53;;;0.40;;
12956;SDS011;6543;48.836;10.092;2024-03-23T09:29:58;1.17;;;0.50;;
12956;SDS011;6543;48.836;10.092;2024-03-23T09:32:24;1.60;;;0.97;;
12956;SDS011;6543;48.836;10.092;2024-03-23T09:34:51;2.37;;;0.77;;
12956;SDS011;6543;48.836;10.092;2024-03-23T09:37:16;3.23;;;0.67;;
12956;SDS011;6543;48.836;10.092;2024-03-23T09:39:43;2.60;;;0.93;;
12956;SDS011;6543;48.836;10.092;2024-03-23T09:42:09;1.67;;;1.30;;
12956;SDS011;6543;48.836;10.092;2024-03-23T09:44:36;0.73;;;0.73;;
12956;SDS011;6543;48.836;10.092;2024-03-23T09:47:03;3.10;;;1.30;;
12956;SDS011;6543;48.836;10.092;2024-03-23T09:49:30;2.20;;;1.17;;
12956;SDS011;6543;48.836;10.092;2024-03-23T09:52:01;1.33;;;1.23;;
12956;SDS011;6543;48.836;10.092;2024-03-23T09:54:28;3.50;;;1.70;;
12956;SDS011;6543;48.836;10.092;2024-03-23T09:56:54;1.40;;;1.20;;
12956;SDS011;6543;48.836;10.092;2024-03-23T09:59:21;1.97;;;1.40;;
12956;SDS011;6543;48.836;10.092;2024-03-23T10:01:47;1.80;;;1.30;;
12956;SDS011;6543;48.836;10.092;2024-03-23T10:07:10;3.83;;;1.70;;
12956;SDS011;6543;48.836;10.092;2024-03-23T10:09:37;2.83;;;1.93;;
12956;SDS011;6543;48.836;10.092;2024-03-23T10:12:08;4.40;;;2.27;;
12956;SDS011;6543;48.836;10.092;2024-03-23T10:14:35;3.00;;;1.80;;
12956;SDS011;6543;48.836;10.092;2024-03-23T10:17:11;2.53;;;2.20;;
12956;SDS011;6543;48.836;10.092;2024-03-23T10:19:45;3.37;;;1.80;;
12956;SDS011;6543;48.836;10.092;2024-03-23T10:22:13;3.27;;;2.47;;
12956;SDS011;6543;48.836;10.092;2024-03-23T10:24:41;5.83;;;1.87;;
12956;SDS011;6543;48.836;10.092;2024-03-23T10:27:07;3.77;;;2.47;;
12956;SDS011;6543;48.836;10.092;2024-03-23T10:29:34;2.23;;;1.97;;
12956;SDS011;6543;48.836;10.092;2024-03-23T10:32:09;4.63;;;2.30;;
12956;SDS011;6543;48.836;10.092;2024-03-23T10:34:36;5.63;;;2.80;;
12956;SDS011;6543;48.836;10.092;2024-03-23T10:37:04;4.90;;;2.20;;
12956;SDS011;6543;48.836;10.092;2024-03-23T10:39:32;5.70;;;2.60;;
12956;SDS011;6543;48.836;10.092;2024-03-23T10:42:00;5.50;;;2.80;;
12956;SDS011;6543;48.836;10.092;2024-03-23T10:44:30;8.70;;;3.13;;
12956;SDS011;6543;48.836;10.092;2024-03-23T10:46:58;4.77;;;2.07;;
12956;SDS011;6543;48.836;10.092;2024-03-23T10:49:26;8.70;;;2.30;;
12956;SDS011;6543;48.836;10.092;2024-03-23T10:51:55;7.70;;;2.40;;
12956;SDS011;6543;48.836;10.092;2024-03-23T10:54:27;4.67;;;2.70;;
12956;SDS011;6543;48.836;10.092;2024-03-23T10:56:56;6.50;;;2.63;;
12956;SDS011;6543;48.836;10.092;2024-03-23T10:59:28;4.10;;;2.30;;
12956;SDS011;6543;48.836;10.092;2024-03-23T11:01:56;7.50;;;2.13;;
12956;SDS011;6543;48.836;10.092;2024-03-23T11:04:30;3.30;;;2.17;;
12956;SDS011;6543;48.836;10.092;2024-03-23T11:06:56;2.73;;;1.70;;
12956;SDS011;6543;48.836;10.092;2024-03-23T11:09:40;4.00;;;1.30;;
12956;SDS011;6543;48.836;10.092;2024-03-23T11:12:25;7.47;;;2.40;;
12956;SDS011;6543;48.836;10.092;2024-03-23T11:14:56;6.00;;;2.37;;
12956;SDS011;6543;48.836;10.092;2024-03-23T11:17:24;4.90;;;1.97;;
12956;SDS011;6543;48.836;10.092;2024-03-23T11:19:53;5.90;;;2.13;;
12956;SDS011;6543;48.836;10.092;2024-03-23T11:22:41;3.00;;;2.10;;
12956;SDS011;6543;48.836;10.092;2024-03-23T11:25:14;4.23;;;1.80;;
12956;SDS011;6543;48.836;10.092;2024-03-23T11:27:41;7.97;;;1.90;;
12956;SDS011;6543;48.836;10.092;2024-03-23T11:30:10;4.53;;;1.70;;
12956;SDS011;6543;48.836;10.092;2024-03-23T11:32:41;5.13;;;2.13;;
12956;SDS011;6543;48.836;10.092;2024-03-23T11:35:08;4.53;;;2.23;;
12956;SDS011;6543;48.836;10.092;2024-03-23T11:37:35;4.57;;;1.57;;
12956;SDS011;6543;48.836;10.092;2024-03-23T11:40:20;4.67;;;1.77;;
12956;SDS011;6543;48.836;10.092;2024-03-23T11:42:47;2.87;;;1.80;;
12956;SDS011;6543;48.836;10.092;2024-03-23T11:45:21;3.60;;;1.37;;
12956;SDS011;6543;48.836;10.092;2024-03-23T11:47:47;2.70;;;1.73;;
12956;SDS011;6543;48.836;10.092;2024-03-23T11:50:19;2.70;;;1.87;;
12956;SDS011;6543;48.836;10.092;2024-03-23T11:52:45;3.30;;;1.93;;
12956;SDS011;6543;48.836;10.092;2024-03-23T11:55:12;6.73;;;2.23;;
12956;SDS011;6543;48.836;10.092;2024-03-23T11:57:53;4.97;;;2.60;;
12956;SDS011;6543;48.836;10.092;2024-03-23T12:00:22;5.60;;;3.10;;
12956;SDS011;6543;48.836;10.092;2024-03-23T12:02:48;8.40;;;3.63;;
12956;SDS011;6543;48.836;10.092;2024-03-23T12:05:15;5.53;;;2.60;;
12956;SDS011;6543;48.836;10.092;2024-03-23T12:07:42;5.70;;;2.63;;
12956;SDS011;6543;48.836;10.092;2024-03-23T12:10:09;5.13;;;2.60;;
12956;SDS011;6543;48.836;10.092;2024-03-23T12:12:35;6.73;;;2.57;;
12956;SDS011;6543;48.836;10.092;2024-03-23T12:15:04;9.17;;;3.20;;
12956;SDS011;6543;48.836;10.092;2024-03-23T12:17:33;8.73;;;3.00;;
12956;SDS011;6543;48.836;10.092;2024-03-23T12:20:01;8.23;;;3.83;;
12956;SDS011;6543;48.836;10.092;2024-03-23T12:22:27;6.83;;;3.27;;
12956;SDS011;6543;48.836;10.092;2024-03-23T12:24:54;5.13;;;2.77;;
12956;SDS011;6543;48.836;10.092;2024-03-23T12:27:20;7.57;;;3.13;;
12956;SDS011;6543;48.836;10.092;2024-03-23T12:29:47;4.40;;;2.90;;
12956;SDS011;6543;48.836;10.092;2024-03-23T12:32:14;7.53;;;3.57;;
12956;SDS011;6543;48.836;10.092;2024-03-23T12:34:48;6.03;;;2.87;;
12956;SDS011;6543;48.836;10.092;2024-03-23T12:37:47;9.03;;;3.00;;
12956;SDS011;6543;48.836;10.092;2024-03-23T12:40:14;9.80;;;3.03;;
12956;SDS011;6543;48.836;10.092;2024-03-23T12:42:40;3.40;;;1.93;;
12956;SDS011;6543;48.836;10.092;2024-03-23T12:45:07;6.70;;;2.83;;
12956;SDS011;6543;48.836;10.092;2024-03-23T12:47:35;9.47;;;3.37;;
12956;SDS011;6543;48.836;10.092;2024-03-23T12:50:02;1.83;;;1.33;;
12956;SDS011;6543;48.836;10.092;2024-03-23T12:52:28;3.83;;;1.77;;
12956;SDS011;6543;48.836;10.092;2024-03-23T12:54:55;4.40;;;2.07;;
12956;SDS011;6543;48.836;10.092;2024-03-23T12:57:22;6.60;;;2.60;;
12956;SDS011;6543;48.836;10.092;2024-03-23T12:59:50;4.80;;;2.10;;
12956;SDS011;6543;48.836;10.092;2024-03-23T13:02:17;11.77;;;2.10;;
12956;SDS011;6543;48.836;10.092;2024-03-23T13:04:49;3.07;;;1.40;;
12956;SDS011;6543;48.836;10.092;2024-03-23T13:07:15;5.57;;;1.90;;
12956;SDS011;6543;48.836;10.092;2024-03-23T13:09:42;4.00;;;1.90;;
12956;SDS011;6543;48.836;10.092;2024-03-23T13:12:09;3.30;;;1.90;;
12956;SDS011;6543;48.836;10.092;2024-03-23T13:14:37;4.43;;;1.90;;
12956;SDS011;6543;48.836;10.092;2024-03-23T13:17:03;2.33;;;1.97;;
12956;SDS011;6543;48.836;10.092;2024-03-23T13:19:30;3.40;;;2.10;;
12956;SDS011;6543;48.836;10.092;2024-03-23T13:21:58;3.27;;;1.40;;
12956;SDS011;6543;48.836;10.092;2024-03-23T13:24:25;5.00;;;2.10;;
12956;SDS011;6543;48.836;10.092;2024-03-23T13:26:52;3.10;;;1.20;;
12956;SDS011;6543;48.836;10.092;2024-03-23T13:29:23;2.97;;;1.77;;
12956;SDS011;6543;48.836;10.092;2024-03-23T13:31:49;3.00;;;1.60;;
12956;SDS011;6543;48.836;10.092;2024-03-23T13:34:18;1.97;;;1.30;;
12956;SDS011;6543;48.836;10.092;2024-03-23T13:36:44;5.07;;;1.40;;
12956;SDS011;6543;48.836;10.092;2024-03-23T13:39:14;4.30;;;1.67;;
12956;SDS011;6543;48.836;10.092;2024-03-23T13:41:42;3.87;;;2.13;;
12956;SDS011;6543;48.836;10.092;2024-03-23T13:44:11;3.77;;;1.23;;
12956;SDS011;6543;48.836;10.092;2024-03-23T13:46:39;4.63;;;1.43;;
12956;SDS011;6543;48.836;10.092;2024-03-23T13:49:08;2.13;;;1.43;;
12956;SDS011;6543;48.836;10.092;2024-03-23T13:51:49;6.40;;;2.23;;
12956;SDS011;6543;48.836;10.092;2024-03-23T13:54:17;7.57;;;2.50;;
12956;SDS011;6543;48.836;10.092;2024-03-23T13:56:43;2.57;;;1.37;;
12956;SDS011;6543;48.836;10.092;2024-03-23T13:59:10;1.27;;;0.70;;
12956;SDS011;6543;48.836;10.092;2024-03-23T14:01:37;3.43;;;1.67;;
12956;SDS011;6543;48.836;10.092;2024-03-23T14:04:04;5.27;;;1.87;;
12956;SDS011;6543;48.836;10.092;2024-03-23T14:06:30;9.63;;;2.90;;
12956;SDS011;6543;48.836;10.092;2024-03-23T14:08:57;1.70;;;0.73;;
12956;SDS011;6543;48.836;10.092;2024-03-23T14:11:24;5.47;;;1.90;;
12956;SDS011;6543;48.836;10.092;2024-03-23T14:13:53;4.73;;;1.67;;
12956;SDS011;6543;48.836;10.092;2024-03-23T14:16:19;6.73;;;1.70;;
12956;SDS011;6543;48.836;10.092;2024-03-23T14:18:46;2.87;;;1.30;;
12956;SDS011;6543;48.836;10.092;2024-03-23T14:21:12;4.23;;;1.70;;
12956;SDS011;6543;48.836;10.092;2024-03-23T14:23:39;2.27;;;1.13;;
12956;SDS011;6543;48.836;10.092;2024-03-23T14:26:06;5.30;;;1.70;;
12956;SDS011;6543;48.836;10.092;2024-03-23T14:28:34;6.87;;;1.63;;
12956;SDS011;6543;48.836;10.092;2024-03-23T14:31:00;4.03;;;1.50;;
12956;SDS011;6543;48.836;10.092;2024-03-23T14:33:28;13.00;;;2.00;;
12956;SDS011;6543;48.836;10.092;2024-03-23T14:35:57;4.67;;;1.97;;
12956;SDS011;6543;48.836;10.092;2024-03-23T14:38:24;2.30;;;1.27;;
12956;SDS011;6543;48.836;10.092;2024-03-23T14:40:50;5.53;;;1.60;;
12956;SDS011;6543;48.836;10.092;2024-03-23T14:43:18;6.80;;;1.67;;
12956;SDS011;6543;48.836;10.092;2024-03-23T14:46:05;8.97;;;2.70;;
12956;SDS011;6543;48.836;10.092;2024-03-23T14:48:33;6.17;;;1.97;;
12956;SDS011;6543;48.836;10.092;2024-03-23T14:51:00;6.17;;;2.17;;
12956;SDS011;6543;48.836;10.092;2024-03-23T14:53:29;3.73;;;1.73;;
12956;SDS011;6543;48.836;10.092;2024-03-23T14:55:56;3.93;;;1.50;;
12956;SDS011;6543;48.836;10.092;2024-03-23T14:58:26;7.27;;;1.07;;
12956;SDS011;6543;48.836;10.092;2024-03-23T15:00:57;1.83;;;1.10;;
12956;SDS011;6543;48.836;10.092;2024-03-23T15:03:26;1.73;;;0.83;;
12956;SDS011;6543;48.836;10.092;2024-03-23T15:05:53;4.27;;;1.00;;
12956;SDS011;6543;48.836;10.092;2024-03-23T15:08:21;3.53;;;1.33;;
12956;SDS011;6543;48.836;10.092;2024-03-23T15:10:47;3.73;;;1.00;;
12956;SDS011;6543;48.836;10.092;2024-03-23T15:13:25;5.70;;;1.37;;
12956;SDS011;6543;48.836;10.092;2024-03-23T15:15:50;4.90;;;1.60;;
12956;SDS011;6543;48.836;10.092;2024-03-23T15:18:19;1.23;;;0.80;;
12956;SDS011;6543;48.836;10.092;2024-03-23T15:20:53;2.17;;;1.20;;
12956;SDS011;6543;48.836;10.092;2024-03-23T15:23:20;2.17;;;0.97;;
12956;SDS011;6543;48.836;10.092;2024-03-23T15:25:53;2.73;;;1.30;;
12956;SDS011;6543;48.836;10.092;2024-03-23T15:28:20;4.80;;;1.53;;
12956;SDS011;6543;48.836;10.092;2024-03-23T15:30:46;3.23;;;1.50;;
12956;SDS011;6543;48.836;10.092;2024-03-23T15:33:13;5.50;;;1.03;;
12956;SDS011;6543;48.836;10.092;2024-03-23T15:35:40;2.63;;;1.10;;
12956;SDS011;6543;48.836;10.092;2024-03-23T15:38:07;2.20;;;1.23;;
12956;SDS011;6543;48.836;10.092;2024-03-23T15:40:34;2.50;;;1.07;;
12956;SDS011;6543;48.836;10.092;2024-03-23T15:43:01;1.30;;;0.80;;
12956;SDS011;6543;48.836;10.092;2024-03-23T15:45:27;5.03;;;0.87;;